Daykin, NE (68338)

6:02 AM CST on March 03, 2015 (GMT -0600)
Crystal Springs Campground | Change Station
CLOSE
Current Station
Personal Weather Station
Location: Fairbury, NE
Elevation: 1424 ft
Nearby Weather Stations
Active Advisory: Special Statement

Elev 1424 ft 40.13 °N, 97.21 °W | Updated 3 seconds ago

Overcast
Overcast
34.4 °F
Feels Like 27 °F
N
9.0
Wind Variable Wind from South
Gusts 9.0 mph

Today
High -- | Low -- °F
--% Chance of Precip.
Yesterday
High -- | Low -- °F
Precip. -- in
6:59 AM 6:22 PM
Waxing Gibbous, 95% visible
Pressure 29.64 in
Visibility 7.0 miles
Clouds Overcast 2400 ft
Windchill 27 °F
Dew Point 32 °F
Humidity 91%
Rainfall 0.00 in
Snow Depth Not available.
UV 0 out of 12
Pollen 3.20 out of 12
Air Quality Not available.
Flu Activity Not available.
METAR KHJH 031155Z AUTO 21005KT 7SM OVC024 02/M01 A2964 RMK AO2 T00151014 10015 21005

More Conditions Fewer Conditions

Pressure 29.64 in
Visibility 7.0 miles
Clouds Overcast 2400 ft
Windchill 27 °F
Dew Point 32 °F
Humidity 91%
Rainfall 0.00 in
Snow Depth Not available.
UV 0 out of 12
Pollen 3.20 out of 12
Air Quality Not available.
Flu Activity Not available.
METAR KHJH 031155Z AUTO 21005KT 7SM OVC024 02/M01 A2964 RMK AO2 T00151014 10015 21005

More Conditions Fewer Conditions

Nowcast | as of 3:47 am CST on March 3, 2015

Areas of drizzle could develop this morning across much of the region. Temperatures will remain from 30 to 32 degrees...thus untreated roads...bridges and overpasses and sidewalks could become a slick in some areas especially where temperatures will be just below freezing.

×

10-Day Weather Forecast

Almanac

Astronomy

Mar. 03, 2015 Rise Set
Actual Time
Civil Twilight
Nautical Twilight
Astronomical Twilight
Moon
Length of Visible Light
Length of Day
Tomorrow will be .
, % of the Moon is Illuminated

Today's Extremes

State Highs State Lows

Community

WunderPhotos

Upload Photos

1,802,090 photos uploaded!

WunderBlogs® & News

Nearby

Air Quality

  Air Quality AQ Index Pollutant
Not available.

Snow Depth

Station Depth Elevation

Earthquake Activity

City Distance Mag. Time & Date
Minimum magnitude displayed is 2.5.

Coastal Water Temperatures

Place Temperature

Nearby Weather Stations

Special Statement
Statement as of 5:20 AM CST on March 03, 2015

... Freezing drizzle possible this morning...

Areas of drizzle will occur this morning... with temperatures
ranging from 30 to 33 degrees. Thus... be prepared for some slick
spots on untreated roadways... and especially on bridges and
overpasses and in low lying areas. Sidewalks and parking lots
could also become slick.


Dewald